Time;durP1;ratioP1;P1;durP2;ratioP2;P2;SDS_P1;SDS_P2;PMS_P1;PMS_P2;Temp;Humidity;BMP_temperature;BMP_pressure;BME280_temperature;BME280_humidity;BME280_pressure;Samples;Min_cycle;Max_cycle;Signal;HPM_P1;HPM_P2
2021/01/28 00:00:40;;;;;;;0.50;0.40;;;;;;;2.90;99.81;100232.44;5033294;28;21086;-67
2021/01/28 00:03:08;;;;;;;0.93;0.60;;;;;;;2.90;99.49;100235.91;5033679;28;20445;-67
2021/01/28 00:05:37;;;;;;;0.80;0.73;;;;;;;2.92;99.15;100227.63;5033637;28;20441;-67
2021/01/28 00:08:04;;;;;;;0.57;0.40;;;;;;;2.87;99.21;100222.25;5033557;28;20443;-67
2021/01/28 00:10:32;;;;;;;1.53;0.67;;;;;;;2.82;99.37;100208.84;5033166;28;20455;-67
2021/01/28 00:13:00;;;;;;;0.40;0.30;;;;;;;2.83;99.49;100205.13;5033171;28;21001;-67
2021/01/28 00:15:29;;;;;;;0.40;0.30;;;;;;;2.80;100.00;100201.09;5033494;28;20443;-67
2021/01/28 00:17:55;;;;;;;0.70;0.70;;;;;;;2.80;100.00;100190.41;5033157;28;20455;-67
2021/01/28 00:20:24;;;;;;;0.40;0.30;;;;;;;2.76;100.00;100187.44;5033375;28;20453;-66
2021/01/28 00:22:50;;;;;;;2.10;1.97;;;;;;;2.80;100.00;100184.25;5032638;28;20466;-67
2021/01/28 00:25:20;;;;;;;0.73;0.50;;;;;;;2.82;100.00;100182.91;5033354;28;20519;-67
2021/01/28 00:27:47;;;;;;;0.60;0.40;;;;;;;2.83;100.00;100178.38;5033283;28;20447;-66
2021/01/28 00:30:17;;;;;;;4.67;1.13;;;;;;;2.83;100.00;100170.34;5033275;28;20469;-66
2021/01/28 00:32:43;;;;;;;3.63;0.60;;;;;;;2.84;100.00;100175.44;5033129;28;20860;-67
2021/01/28 00:35:12;;;;;;;0.50;0.40;;;;;;;2.88;100.00;100175.72;5033202;28;20447;-67
2021/01/28 00:37:38;;;;;;;1.43;1.17;;;;;;;2.87;100.00;100171.44;5033211;28;20529;-66
2021/01/28 00:40:05;;;;;;;0.50;0.50;;;;;;;2.93;100.00;100175.75;5033197;28;20743;-67
2021/01/28 00:42:33;;;;;;;0.40;0.30;;;;;;;2.96;100.00;100183.25;5033031;28;20488;-67
2021/01/28 00:45:00;;;;;;;0.40;0.30;;;;;;;2.96;100.00;100180.56;5032914;28;21051;-67
2021/01/28 00:47:27;;;;;;;0.40;0.40;;;;;;;2.92;100.00;100171.47;5032790;28;20962;-67
2021/01/28 00:49:54;;;;;;;0.40;0.30;;;;;;;2.96;100.00;100169.88;5032761;28;20473;-68
2021/01/28 00:52:20;;;;;;;0.40;0.30;;;;;;;2.96;100.00;100164.53;5032513;28;20490;-68
2021/01/28 00:54:46;;;;;;;0.50;0.40;;;;;;;2.98;100.00;100162.41;5033081;28;20503;-68
2021/01/28 00:57:12;;;;;;;0.77;0.40;;;;;;;2.97;100.00;100160.81;5032972;28;20456;-67
2021/01/28 00:59:39;;;;;;;0.50;0.40;;;;;;;3.00;100.00;100160.25;5032975;28;20453;-67
2021/01/28 01:02:05;;;;;;;0.77;0.50;;;;;;;2.98;100.00;100165.09;5032604;28;20878;-68
2021/01/28 01:04:31;;;;;;;0.40;0.40;;;;;;;2.99;100.00;100161.34;5032651;28;20934;-68
2021/01/28 01:06:57;;;;;;;0.40;0.30;;;;;;;2.98;100.00;100159.72;5035332;28;20972;-68
2021/01/28 01:09:24;;;;;;;2.50;1.37;;;;;;;3.02;100.00;100155.47;5036940;28;20493;-70
2021/01/28 01:11:51;;;;;;;0.50;0.40;;;;;;;2.98;100.00;100146.34;5036795;28;20467;-68
2021/01/28 01:14:17;;;;;;;2.10;1.13;;;;;;;2.97;100.00;100142.88;5036738;28;20541;-68
2021/01/28 01:16:44;;;;;;;0.40;0.30;;;;;;;3.00;100.00;100144.22;5036490;28;20950;-68
2021/01/28 01:19:11;;;;;;;0.40;0.23;;;;;;;3.00;100.00;100141.53;5036879;28;20435;-68
2021/01/28 01:21:37;;;;;;;0.40;0.30;;;;;;;3.04;100.00;100134.59;5036609;28;20471;-68
2021/01/28 01:24:04;;;;;;;0.87;0.50;;;;;;;3.01;100.00;100125.25;5036643;28;20449;-68
2021/01/28 01:26:30;;;;;;;0.70;0.50;;;;;;;3.00;100.00;100126.28;5036631;28;20526;-68
2021/01/28 01:28:56;;;;;;;0.60;0.60;;;;;;;3.05;100.00;100112.13;5036490;28;20452;-68
2021/01/28 01:31:22;;;;;;;0.40;0.30;;;;;;;3.07;100.00;100115.34;5036483;28;20458;-68
2021/01/28 01:33:49;;;;;;;0.67;0.40;;;;;;;3.11;100.00;100110.28;5036403;28;20483;-68
2021/01/28 01:36:15;;;;;;;0.43;0.37;;;;;;;3.12;100.00;100112.69;5036189;28;20454;-68
2021/01/28 01:38:41;;;;;;;0.43;0.30;;;;;;;3.07;100.00;100111.88;5036383;28;20488;-68
2021/01/28 01:41:07;;;;;;;0.40;0.30;;;;;;;3.06;100.00;100102.25;5036252;28;20469;-68
2021/01/28 01:43:33;;;;;;;0.93;0.53;;;;;;;3.00;100.00;100096.88;5036322;28;20439;-68
2021/01/28 01:46:02;;;;;;;0.77;0.77;;;;;;;3.03;100.00;100084.84;5036268;28;20442;-68
2021/01/28 01:48:31;;;;;;;1.03;0.97;;;;;;;3.08;100.00;100081.38;5036194;28;20445;-68
2021/01/28 01:51:03;;;;;;;0.67;0.67;;;;;;;3.10;100.00;100077.38;5035749;28;20489;-67
2021/01/28 01:53:32;;;;;;;0.40;0.30;;;;;;;3.09;100.00;100080.31;5037360;28;20493;-68
2021/01/28 01:56:01;;;;;;;0.53;0.53;;;;;;;3.03;100.00;100074.94;5036011;28;20443;-68
2021/01/28 01:58:36;;;;;;;2.03;0.40;;;;;;;3.11;100.00;100080.84;5036003;28;20455;-68
2021/01/28 02:01:03;;;;;;;0.73;0.40;;;;;;;3.12;100.00;100083.25;5035900;28;20475;-68
2021/01/28 02:03:33;;;;;;;1.90;1.03;;;;;;;3.15;100.00;100081.94;5035695;28;20938;-68
2021/01/28 02:06:09;;;;;;;0.40;0.40;;;;;;;3.19;100.00;100086.50;5035906;28;20443;-66
2021/01/28 02:08:35;;;;;;;0.83;0.70;;;;;;;3.25;100.00;100087.31;5035894;28;20829;-68
2021/01/28 02:11:05;;;;;;;1.83;0.87;;;;;;;3.27;100.00;100079.81;5035754;28;20463;-68
2021/01/28 02:13:32;;;;;;;0.50;0.37;;;;;;;3.31;100.00;100080.88;5035486;28;20483;-68
2021/01/28 02:15:58;;;;;;;0.40;0.30;;;;;;;3.34;100.00;100077.69;5035706;28;20447;-68
2021/01/28 02:18:24;;;;;;;0.40;0.30;;;;;;;3.33;100.00;100070.72;5034979;28;20509;-69
2021/01/28 02:21:11;;;;;;;0.40;0.30;;;;;;;3.27;100.00;100069.91;5035555;28;20451;-67
2021/01/28 02:23:49;;;;;;;1.33;0.83;;;;;;;3.32;100.00;100071.81;5035301;28;20434;-68
2021/01/28 02:26:16;;;;;;;0.70;0.60;;;;;;;3.35;100.00;100065.91;5035553;28;20488;-68
2021/01/28 02:28:42;;;;;;;1.60;1.50;;;;;;;3.36;100.00;100056.00;5035470;28;20461;-67
2021/01/28 02:31:09;;;;;;;2.03;1.27;;;;;;;3.39;100.00;100058.16;5035377;28;20550;-68
2021/01/28 02:33:40;;;;;;;0.83;0.83;;;;;;;3.38;100.00;100046.66;5034996;28;21089;-68
2021/01/28 02:36:06;;;;;;;0.67;0.60;;;;;;;3.42;100.00;100057.63;5035408;28;20485;-68
2021/01/28 02:38:33;;;;;;;3.43;0.60;;;;;;;3.47;100.00;100049.59;5035238;28;20453;-67
2021/01/28 02:40:59;;;;;;;0.50;0.47;;;;;;;3.50;100.00;100057.09;5035201;28;20885;-68
2021/01/28 02:43:26;;;;;;;0.50;0.30;;;;;;;3.52;100.00;100061.09;5035250;28;20859;-68
2021/01/28 02:46:02;;;;;;;1.63;1.27;;;;;;;3.53;100.00;100043.97;5034817;28;20466;-68
2021/01/28 02:48:28;;;;;;;0.40;0.30;;;;;;;3.56;100.00;100048.00;5034899;28;20977;-68
2021/01/28 02:50:54;;;;;;;0.40;0.30;;;;;;;3.57;100.00;100044.25;5034811;28;20479;-67
2021/01/28 02:53:20;;;;;;;0.70;0.67;;;;;;;3.56;100.00;100044.50;5035006;28;20493;-68
2021/01/28 02:55:46;;;;;;;0.90;0.90;;;;;;;3.58;100.00;100037.00;5034999;28;20443;-68
2021/01/28 02:58:12;;;;;;;0.70;0.47;;;;;;;3.59;100.00;100035.97;5034964;28;20449;-68
2021/01/28 03:00:39;;;;;;;2.20;0.50;;;;;;;3.59;100.00;100041.31;5034765;28;20467;-68
2021/01/28 03:03:07;;;;;;;1.90;0.90;;;;;;;3.61;100.00;100042.63;5034685;28;20435;-67
2021/01/28 03:05:33;;;;;;;0.40;0.30;;;;;;;3.66;100.00;100039.16;5034450;28;20443;-68
2021/01/28 03:08:00;;;;;;;0.40;0.40;;;;;;;3.67;100.00;100033.50;5034591;28;20962;-68
2021/01/28 03:10:27;;;;;;;0.73;0.63;;;;;;;3.67;100.00;100022.81;5034642;28;20533;-68
2021/01/28 03:12:53;;;;;;;1.70;1.00;;;;;;;3.69;100.00;100026.03;5034246;28;21001;-67
2021/01/28 03:15:25;;;;;;;0.40;0.30;;;;;;;3.71;100.00;100018.50;5034598;28;20445;-68
2021/01/28 03:17:52;;;;;;;0.87;0.47;;;;;;;3.72;100.00;100032.75;5034307;28;20810;-67
2021/01/28 03:20:20;;;;;;;0.67;0.67;;;;;;;3.70;100.00;100024.16;5034521;28;20529;-68
2021/01/28 03:22:46;;;;;;;0.70;0.60;;;;;;;3.73;100.00;100021.75;5034101;28;20961;-68
2021/01/28 03:25:14;;;;;;;2.10;0.90;;;;;;;3.79;100.00;100020.66;5034460;28;20450;-68
2021/01/28 03:27:40;;;;;;;0.40;0.40;;;;;;;3.81;100.00;100020.41;5033704;28;20516;-67
2021/01/28 03:30:11;;;;;;;0.50;0.40;;;;;;;3.83;100.00;100020.94;5033337;28;20473;-68
2021/01/28 03:32:37;;;;;;;0.50;0.40;;;;;;;3.83;100.00;100017.44;5033803;28;20998;-67
2021/01/28 03:35:06;;;;;;;0.50;0.40;;;;;;;3.81;100.00;100012.38;5033935;28;21002;-67
2021/01/28 03:37:32;;;;;;;3.70;1.13;;;;;;;3.82;100.00;100018.53;5034170;28;20448;-70
2021/01/28 03:39:59;;;;;;;0.87;0.80;;;;;;;3.85;100.00;100004.56;5033800;28;20506;-68
2021/01/28 03:42:25;;;;;;;6.23;1.83;;;;;;;3.86;100.00;99998.97;5034037;28;20463;-67
2021/01/28 03:44:51;;;;;;;1.77;0.63;;;;;;;3.83;100.00;99990.66;5034088;28;20871;-67
2021/01/28 03:47:17;;;;;;;0.40;0.40;;;;;;;3.81;100.00;99985.59;5033635;28;20471;-67
2021/01/28 03:49:43;;;;;;;1.83;0.97;;;;;;;3.84;100.00;99984.22;5033614;28;20938;-67
2021/01/28 03:52:10;;;;;;;0.77;0.50;;;;;;;3.89;100.00;99986.88;5033754;28;20493;-67
2021/01/28 03:54:36;;;;;;;1.40;0.77;;;;;;;3.90;100.00;99975.91;5033748;28;20548;-66
2021/01/28 03:57:03;;;;;;;1.27;1.17;;;;;;;3.88;100.00;99975.38;5033850;28;20445;-67
2021/01/28 03:59:29;;;;;;;0.40;0.37;;;;;;;3.93;100.00;99977.22;5033872;28;20453;-67
2021/01/28 04:01:55;;;;;;;0.60;0.40;;;;;;;3.97;100.00;99976.41;5033660;28;20471;-67
2021/01/28 04:04:21;;;;;;;1.33;1.27;;;;;;;3.98;100.00;99963.81;5033705;28;20446;-68
2021/01/28 04:06:47;;;;;;;3.50;1.17;;;;;;;3.98;100.00;99974.53;5033354;28;21005;-67
2021/01/28 04:09:14;;;;;;;1.07;1.07;;;;;;;4.01;100.00;99976.69;5033675;28;20454;-67
2021/01/28 04:11:40;;;;;;;6.77;1.13;;;;;;;4.03;100.00;99966.50;5033441;28;20546;-67
2021/01/28 04:14:07;;;;;;;0.70;0.70;;;;;;;4.02;100.00;99960.31;5033156;28;20855;-68
2021/01/28 04:16:33;;;;;;;0.50;0.50;;;;;;;4.09;100.00;99957.38;5033146;28;21040;-68
2021/01/28 04:18:59;;;;;;;2.03;0.80;;;;;;;4.10;100.00;99956.28;5033158;28;21007;-67
2021/01/28 04:21:25;;;;;;;10.27;1.07;;;;;;;4.11;100.00;99957.88;5033341;28;20837;-67
2021/01/28 04:23:51;;;;;;;0.80;0.80;;;;;;;4.14;100.00;99943.16;5033409;28;20812;-68
2021/01/28 04:26:18;;;;;;;4.23;1.13;;;;;;;4.17;100.00;99950.66;5033419;28;20500;-68
2021/01/28 04:28:44;;;;;;;2.40;0.70;;;;;;;4.17;100.00;99951.44;5033352;28;20465;-68
2021/01/28 04:31:10;;;;;;;11.47;2.00;;;;;;;4.19;100.00;99949.28;5033244;28;20463;-68
2021/01/28 04:33:36;;;;;;;2.60;1.53;;;;;;;4.15;100.00;99942.88;5033179;28;20490;-68
2021/01/28 04:36:03;;;;;;;1.50;1.40;;;;;;;4.19;100.00;99943.91;5033254;28;20453;-68
2021/01/28 04:38:29;;;;;;;0.57;0.57;;;;;;;4.21;100.00;99946.34;5033205;28;20518;-68
2021/01/28 04:41:05;;;;;;;0.83;0.47;;;;;;;4.22;100.00;99939.91;5032800;28;20520;-68
2021/01/28 04:43:33;;;;;;;0.50;0.43;;;;;;;4.22;100.00;99943.38;5032896;28;20484;-68
2021/01/28 04:46:01;;;;;;;0.40;0.30;;;;;;;4.23;100.00;99939.63;5033083;28;20453;-67
2021/01/28 04:48:29;;;;;;;0.40;0.40;;;;;;;4.23;100.00;99944.97;5033082;28;20441;-68
2021/01/28 04:50:57;;;;;;;0.60;0.60;;;;;;;4.25;100.00;99944.69;5032746;28;20483;-67
2021/01/28 04:53:31;;;;;;;0.60;0.43;;;;;;;4.26;100.00;99944.44;5033038;28;20481;-67
2021/01/28 04:55:57;;;;;;;0.70;0.70;;;;;;;4.27;100.00;99931.84;5033043;28;20443;-67
2021/01/28 04:58:23;;;;;;;0.77;0.70;;;;;;;4.30;100.00;99929.41;5032996;28;20442;-68
2021/01/28 05:00:50;;;;;;;0.73;0.73;;;;;;;4.31;100.00;99935.56;5032887;28;20469;-67
2021/01/28 05:03:20;;;;;;;0.77;0.50;;;;;;;4.31;100.00;99924.84;5032687;28;20435;-67
2021/01/28 05:05:50;;;;;;;0.83;0.50;;;;;;;4.27;100.00;99926.47;5032632;28;20968;-67
2021/01/28 05:08:16;;;;;;;1.70;0.83;;;;;;;4.28;100.00;99928.88;5032887;28;20450;-67
2021/01/28 05:10:46;;;;;;;0.50;0.50;;;;;;;4.26;100.00;99927.56;5032848;28;20467;-67
2021/01/28 05:13:23;;;;;;;1.00;0.80;;;;;;;4.30;100.00;99928.63;5032767;28;20556;-67
2021/01/28 05:15:51;;;;;;;0.40;0.30;;;;;;;4.37;100.00;99922.94;5032939;28;20439;-67
2021/01/28 05:18:26;;;;;;;2.03;1.00;;;;;;;4.36;100.00;99918.66;5032895;28;20849;-67
2021/01/28 05:20:52;;;;;;;2.27;0.80;;;;;;;4.36;100.00;99907.94;5032472;28;20985;-67
2021/01/28 05:23:28;;;;;;;1.87;1.13;;;;;;;4.40;100.00;99907.09;5032517;28;20964;-67
2021/01/28 05:25:54;;;;;;;0.80;0.53;;;;;;;4.45;100.00;99907.06;5032775;28;20441;-68
2021/01/28 05:28:30;;;;;;;1.30;1.20;;;;;;;4.47;100.00;99906.78;5032740;28;20431;-67
2021/01/28 05:30:59;;;;;;;3.43;1.07;;;;;;;4.48;100.00;99903.03;5032654;28;20478;-67
2021/01/28 05:33:34;;;;;;;0.60;0.53;;;;;;;4.51;100.00;99908.63;5032340;28;20479;-67
2021/01/28 05:36:22;;;;;;;0.40;0.30;;;;;;;4.52;100.00;99909.47;5032701;28;20576;-67
2021/01/28 05:38:50;;;;;;;3.10;0.80;;;;;;;4.53;100.00;99913.75;5028243;28;20463;-67
2021/01/28 05:41:28;;;;;;;4.17;0.97;;;;;;;4.50;100.00;99915.09;5032530;28;20463;-70
2021/01/28 05:43:54;;;;;;;1.73;1.00;;;;;;;4.53;100.00;99919.91;5032278;28;20447;-68
2021/01/28 05:46:25;;;;;;;5.60;2.23;;;;;;;4.45;100.00;99906.28;5032556;28;20443;-68
2021/01/28 05:49:05;;;;;;;0.40;0.30;;;;;;;4.53;100.00;99900.34;5032296;28;20876;-67
2021/01/28 05:51:39;;;;;;;1.60;1.17;;;;;;;4.48;100.00;99903.84;5032292;28;20471;-69
2021/01/28 05:54:08;;;;;;;0.90;0.73;;;;;;;4.51;100.00;99907.84;5034767;28;21084;-67
2021/01/28 05:56:50;;;;;;;1.20;0.93;;;;;;;4.48;100.00;99909.22;5036097;28;20443;-68
2021/01/28 05:59:26;;;;;;;0.40;0.30;;;;;;;4.48;100.00;99909.22;5036110;28;20445;-69
2021/01/28 06:02:09;;;;;;;0.50;0.50;;;;;;;4.53;100.00;99903.81;5035655;28;20904;-70
2021/01/28 06:04:48;;;;;;;0.70;0.67;;;;;;;4.60;100.00;99900.81;5035961;28;20431;-68
2021/01/28 06:07:31;;;;;;;11.90;0.90;;;;;;;4.59;100.00;99898.41;5035920;28;20431;-69
2021/01/28 06:10:19;;;;;;;0.40;0.30;;;;;;;4.65;100.00;99908.00;5035684;28;20424;-69
2021/01/28 06:13:04;;;;;;;1.60;0.93;;;;;;;4.61;100.00;99905.13;5035473;28;20771;-69
2021/01/28 06:15:41;;;;;;;0.40;0.30;;;;;;;4.62;100.00;99908.59;5035743;28;20437;-71
2021/01/28 06:18:48;;;;;;;0.60;0.40;;;;;;;4.65;100.00;99903.47;5035437;28;20435;-71
2021/01/28 06:21:41;;;;;;;0.40;0.30;;;;;;;4.70;100.00;99910.69;5024976;28;20553;-71
2021/01/28 06:24:33;;;;;;;0.40;0.40;;;;;;;4.70;100.00;99906.13;5027441;28;20447;-70
2021/01/28 06:27:10;;;;;;;2.87;0.50;;;;;;;4.78;100.00;99912.75;5035582;28;20510;-71
2021/01/28 06:29:57;;;;;;;0.73;0.70;;;;;;;4.79;100.00;99909.81;5035199;28;20463;-71
2021/01/28 06:32:54;;;;;;;3.27;1.20;;;;;;;4.76;100.00;99909.56;5034590;28;20994;-71
2021/01/28 06:35:38;;;;;;;0.80;0.43;;;;;;;4.74;100.00;99927.84;5014526;28;20492;-71
2021/01/28 06:38:24;;;;;;;1.27;1.20;;;;;;;4.59;100.00;99930.59;5035026;28;20914;-71
2021/01/28 06:40:53;;;;;;;1.10;1.10;;;;;;;4.53;100.00;99933.31;5035260;28;20832;-71
2021/01/28 06:43:25;;;;;;;0.80;0.43;;;;;;;4.47;100.00;99933.59;5035257;28;20443;-70
2021/01/28 06:45:57;;;;;;;1.47;1.03;;;;;;;4.36;100.00;99932.06;5034917;28;20779;-71
2021/01/28 06:48:29;;;;;;;1.57;0.70;;;;;;;4.19;100.00;99933.19;5035164;28;20428;-71
2021/01/28 06:51:03;;;;;;;0.50;0.40;;;;;;;4.12;100.00;99938.06;5034910;28;20482;-71
2021/01/28 06:53:42;;;;;;;0.67;0.67;;;;;;;4.03;100.00;99932.47;5035022;28;20471;-71
2021/01/28 06:56:13;;;;;;;0.40;0.30;;;;;;;3.98;100.00;99931.66;5035083;28;20439;-71
2021/01/28 06:58:58;;;;;;;0.73;0.60;;;;;;;3.92;100.00;99927.41;5035029;28;20432;-72
2021/01/28 07:01:33;;;;;;;0.40;0.30;;;;;;;3.90;100.00;99932.25;5034870;28;20447;-69
2021/01/28 07:04:09;;;;;;;0.40;0.30;;;;;;;3.87;100.00;99930.91;5034681;28;20427;-71
2021/01/28 07:06:43;;;;;;;0.50;0.30;;;;;;;3.82;100.00;99933.63;5034790;28;20506;-70
2021/01/28 07:09:20;;;;;;;0.40;0.30;;;;;;;3.78;100.00;99937.91;5034499;28;20866;-70
2021/01/28 07:11:47;;;;;;;0.70;0.50;;;;;;;3.84;100.00;99925.28;5034303;28;20969;-68
2021/01/28 07:14:15;;;;;;;0.40;0.30;;;;;;;3.88;100.00;99931.72;5034562;28;20475;-70
2021/01/28 07:16:49;;;;;;;0.40;0.30;;;;;;;3.85;100.00;99921.53;5034596;28;20449;-69
2021/01/28 07:19:19;;;;;;;0.40;0.30;;;;;;;3.83;100.00;99926.38;5034478;28;20418;-68
2021/01/28 07:21:48;;;;;;;0.40;0.20;;;;;;;3.92;100.00;99922.06;5034379;28;20561;-69
2021/01/28 07:24:31;;;;;;;0.60;0.53;;;;;;;3.96;100.00;99909.72;5034432;28;20440;-70
2021/01/28 07:26:59;;;;;;;0.73;0.73;;;;;;;3.91;100.00;99905.19;5034442;28;20416;-69
2021/01/28 07:29:55;;;;;;;0.40;0.30;;;;;;;3.84;100.00;99911.91;5034073;28;20447;-69
2021/01/28 07:32:51;;;;;;;0.40;0.30;;;;;;;3.91;100.00;99907.06;5034376;28;20471;-69
2021/01/28 07:35:42;;;;;;;0.40;0.30;;;;;;;3.95;100.00;99910.81;5034038;28;20944;-69
2021/01/28 07:38:45;;;;;;;0.40;0.20;;;;;;;4.04;100.00;99917.19;5031040;28;20459;-69
2021/01/28 07:41:52;;;;;;;0.40;0.27;;;;;;;4.10;100.00;99921.44;5034107;28;20470;-69
2021/01/28 07:44:41;;;;;;;0.40;0.30;;;;;;;4.12;100.00;99922.00;5034333;28;20843;-69
2021/01/28 07:47:15;;;;;;;0.40;0.30;;;;;;;4.12;100.00;99922.00;5034040;28;20435;-69
2021/01/28 07:50:17;;;;;;;0.40;0.30;;;;;;;4.13;100.00;99934.31;5033710;28;20426;-69
2021/01/28 07:52:43;;;;;;;0.73;0.70;;;;;;;4.15;100.00;99928.66;5034645;28;20479;-69
2021/01/28 07:55:38;;;;;;;0.53;0.50;;;;;;;4.13;100.00;99923.59;5033884;28;20501;-69
2021/01/28 07:58:16;;;;;;;0.97;0.63;;;;;;;3.93;100.00;99910.25;5033843;28;20434;-68
2021/01/28 08:00:44;;;;;;;0.40;0.30;;;;;;;3.95;100.00;99910.81;5033724;28;20455;-69
2021/01/28 08:03:20;;;;;;;0.40;0.20;;;;;;;3.93;100.00;99904.91;5033732;28;20461;-69
2021/01/28 08:05:51;;;;;;;3.03;2.10;;;;;;;3.97;100.00;99903.28;5033667;28;20427;-69
2021/01/28 08:08:20;;;;;;;1.17;0.90;;;;;;;3.96;100.00;99912.41;5033413;28;20486;-69
2021/01/28 08:10:47;;;;;;;2.30;1.17;;;;;;;3.91;100.00;99917.78;5033415;28;20459;-68
2021/01/28 08:13:21;;;;;;;0.40;0.30;;;;;;;3.73;100.00;99917.28;5033563;28;20529;-68
2021/01/28 08:15:50;;;;;;;0.40;0.40;;;;;;;3.73;100.00;99909.25;5033002;28;20772;-68
2021/01/28 08:18:19;;;;;;;0.50;0.50;;;;;;;3.68;100.00;99906.59;5033512;28;20443;-69
2021/01/28 08:20:47;;;;;;;0.40;0.30;;;;;;;3.69;100.00;99904.72;5033383;28;20624;-69
2021/01/28 08:23:19;;;;;;;0.80;0.57;;;;;;;3.69;100.00;99918.91;5033014;28;20445;-70
2021/01/28 08:25:54;;;;;;;0.40;0.30;;;;;;;3.70;100.00;99909.00;5033105;28;20443;-69
2021/01/28 08:28:20;;;;;;;0.40;0.20;;;;;;;3.75;100.00;99912.44;5033311;28;20530;-70
2021/01/28 08:30:46;;;;;;;0.40;0.30;;;;;;;3.76;100.00;99914.09;5033261;28;20463;-70
2021/01/28 08:33:22;;;;;;;0.40;0.30;;;;;;;3.85;100.00;99913.50;5032888;28;20540;-70
2021/01/28 08:35:51;;;;;;;0.40;0.30;;;;;;;3.97;100.00;99914.00;5033327;28;20450;-70
2021/01/28 08:38:20;;;;;;;2.37;0.90;;;;;;;3.98;100.00;99910.25;5033254;28;20451;-69
2021/01/28 08:40:57;;;;;;;0.63;0.63;;;;;;;4.05;100.00;99919.59;5032799;28;20461;-70
2021/01/28 08:43:23;;;;;;;0.50;0.33;;;;;;;3.98;100.00;99920.94;5033129;28;20477;-69
2021/01/28 08:46:01;;;;;;;2.00;1.13;;;;;;;4.03;100.00;99910.25;5033031;28;20869;-69
2021/01/28 08:48:27;;;;;;;0.40;0.40;;;;;;;4.14;100.00;99905.63;5033079;28;20423;-70
2021/01/28 08:51:04;;;;;;;2.20;1.80;;;;;;;4.23;100.00;99914.69;5032718;28;20474;-68
2021/01/28 08:53:30;;;;;;;0.40;0.30;;;;;;;4.25;100.00;99929.44;5033028;28;20606;-67
2021/01/28 08:56:06;;;;;;;0.40;0.30;;;;;;;4.13;100.00;99930.84;5032963;28;20447;-68
2021/01/28 08:58:37;;;;;;;0.73;0.73;;;;;;;4.14;100.00;99925.19;5033070;28;20469;-69
2021/01/28 09:01:05;;;;;;;1.67;0.60;;;;;;;4.19;100.00;99932.41;5032566;28;20509;-69
2021/01/28 09:03:34;;;;;;;0.77;0.77;;;;;;;4.19;100.00;99927.84;5032985;28;20488;-68
2021/01/28 09:06:02;;;;;;;0.50;0.40;;;;;;;4.13;100.00;99925.47;5033106;28;20439;-70
2021/01/28 09:08:33;;;;;;;0.50;0.50;;;;;;;3.87;100.00;99924.75;5032379;28;20845;-70
2021/01/28 09:11:15;;;;;;;0.40;0.20;;;;;;;3.70;100.00;99920.50;5032254;28;20474;-69
2021/01/28 09:13:41;;;;;;;0.40;0.20;;;;;;;3.69;100.00;99920.78;5032605;28;20475;-69
2021/01/28 09:16:13;;;;;;;0.40;0.30;;;;;;;3.82;100.00;99922.91;5032873;28;20447;-70
2021/01/28 09:18:42;;;;;;;0.90;0.50;;;;;;;3.69;100.00;99926.94;5033001;28;20448;-72
2021/01/28 09:21:12;;;;;;;0.40;0.20;;;;;;;3.74;100.00;99921.56;5033464;28;20545;-70
2021/01/28 09:23:53;;;;;;;0.77;0.40;;;;;;;3.82;100.00;99922.91;5032906;28;20476;-71
2021/01/28 09:26:22;;;;;;;0.40;0.30;;;;;;;3.89;100.00;99928.75;5033268;28;20431;-70
2021/01/28 09:28:48;;;;;;;0.40;0.30;;;;;;;3.88;100.00;99918.31;5035972;28;20831;-70
2021/01/28 09:31:26;;;;;;;0.40;0.30;;;;;;;3.79;100.00;99924.22;5037712;28;20492;-68
2021/01/28 09:33:52;;;;;;;2.40;0.70;;;;;;;3.97;100.00;99925.50;5036626;28;20512;-68
2021/01/28 09:36:29;;;;;;;0.50;0.40;;;;;;;3.83;100.00;99915.66;5036721;28;20499;-68
2021/01/28 09:39:01;;;;;;;5.23;1.13;;;;;;;3.92;100.00;99911.34;5036012;28;20960;-69
2021/01/28 09:41:33;;;;;;;0.40;0.30;;;;;;;3.94;100.00;99903.81;5036043;28;21030;-69
2021/01/28 09:44:00;;;;;;;0.40;0.30;;;;;;;3.75;99.33;99906.28;5036126;28;20800;-70
2021/01/28 09:46:30;;;;;;;0.40;0.30;;;;;;;3.84;99.65;99907.34;5036319;28;20534;-68
2021/01/28 09:48:58;;;;;;;1.63;1.03;;;;;;;4.04;100.00;99895.75;5035882;28;20438;-70
2021/01/28 09:51:29;;;;;;;0.97;0.50;;;;;;;4.11;100.00;99890.88;5035639;28;20904;-67
2021/01/28 09:54:01;;;;;;;0.60;0.40;;;;;;;4.17;100.00;99889.81;5036138;28;20463;-67
2021/01/28 09:56:28;;;;;;;1.17;0.47;;;;;;;4.22;100.00;99889.78;5036041;28;20465;-67
2021/01/28 09:58:54;;;;;;;1.53;0.47;;;;;;;4.19;99.94;99890.31;5035547;28;20829;-68
2021/01/28 10:01:20;;;;;;;0.50;0.43;;;;;;;4.16;99.53;99882.03;5035638;28;20832;-67
2021/01/28 10:03:46;;;;;;;0.40;0.30;;;;;;;4.21;99.25;99880.13;5035944;28;20488;-67
2021/01/28 10:06:12;;;;;;;0.40;0.30;;;;;;;4.15;98.12;99883.09;5035633;28;20946;-67
2021/01/28 10:08:39;;;;;;;1.47;1.37;;;;;;;3.99;97.31;99883.19;5035862;28;20451;-67
2021/01/28 10:11:06;;;;;;;0.60;0.60;;;;;;;3.84;96.92;99883.22;5035745;28;20467;-67
2021/01/28 10:13:33;;;;;;;4.80;1.60;;;;;;;3.95;97.60;99892.06;5035696;28;20490;-67
2021/01/28 10:15:59;;;;;;;0.40;0.30;;;;;;;3.99;96.54;99883.19;5035723;28;20439;-67
2021/01/28 10:18:25;;;;;;;0.40;0.30;;;;;;;4.14;96.62;99881.50;5035739;28;20447;-67
2021/01/28 10:20:51;;;;;;;0.40;0.30;;;;;;;4.05;95.35;99887.44;5035489;28;20463;-67
2021/01/28 10:23:17;;;;;;;0.40;0.20;;;;;;;4.09;96.12;99878.84;5035555;28;20447;-67
2021/01/28 10:25:44;;;;;;;0.40;0.30;;;;;;;4.08;95.99;99867.34;5035530;28;20453;-67
2021/01/28 10:28:11;;;;;;;0.40;0.40;;;;;;;4.23;95.74;99871.81;5035471;28;20450;-67
2021/01/28 10:30:37;;;;;;;0.40;0.30;;;;;;;4.33;96.03;99860.22;5035127;28;20814;-67
2021/01/28 10:33:04;;;;;;;0.40;0.30;;;;;;;4.12;93.92;99871.06;5035340;28;20443;-68
2021/01/28 10:35:31;;;;;;;0.40;0.30;;;;;;;4.12;93.88;99867.56;5035423;28;20845;-67
2021/01/28 10:37:58;;;;;;;1.27;1.20;;;;;;;4.23;94.27;99858.41;5034906;28;20965;-67
2021/01/28 10:40:24;;;;;;;0.50;0.40;;;;;;;4.23;94.36;99856.53;5034842;28;20473;-67
2021/01/28 10:42:56;;;;;;;0.50;0.40;;;;;;;4.41;94.60;99849.72;5035252;28;20447;-67
2021/01/28 10:45:25;;;;;;;0.70;0.50;;;;;;;4.58;94.76;99857.38;5035215;28;20778;-68
2021/01/28 10:47:51;;;;;;;1.77;1.17;;;;;;;4.55;95.35;99857.94;5034901;28;20937;-68
2021/01/28 10:50:20;;;;;;;0.40;0.30;;;;;;;4.66;94.37;99845.28;5035090;28;20450;-67
2021/01/28 10:52:47;;;;;;;0.50;0.40;;;;;;;4.15;88.79;99848.28;5035036;28;20447;-67
2021/01/28 10:55:13;;;;;;;0.60;0.60;;;;;;;4.11;90.00;99842.66;5034605;28;20483;-67
2021/01/28 10:57:39;;;;;;;0.80;0.77;;;;;;;4.22;90.74;99827.34;5035024;28;20445;-67
2021/01/28 11:00:07;;;;;;;0.57;0.57;;;;;;;4.21;91.25;99825.75;5034853;28;20445;-67
2021/01/28 11:02:33;;;;;;;0.40;0.30;;;;;;;4.32;91.58;99829.94;5034487;28;21063;-67
2021/01/28 11:04:59;;;;;;;1.37;0.77;;;;;;;4.40;91.02;99820.50;5034849;28;20469;-67
2021/01/28 11:07:26;;;;;;;0.40;0.40;;;;;;;4.21;89.40;99812.34;5034193;28;20553;-70
2021/01/28 11:09:52;;;;;;;0.40;0.30;;;;;;;4.12;90.57;99803.25;5034779;28;20443;-68
2021/01/28 11:12:18;;;;;;;1.00;0.80;;;;;;;4.19;90.55;99793.84;5033972;28;20474;-68
2021/01/28 11:14:44;;;;;;;0.60;0.33;;;;;;;4.34;91.02;99792.94;5034336;28;21000;-68
2021/01/28 11:17:11;;;;;;;0.50;0.40;;;;;;;4.37;90.21;99788.88;5033981;28;20451;-68
2021/01/28 11:19:37;;;;;;;0.63;0.40;;;;;;;4.40;90.81;99799.06;5034268;28;20462;-68
2021/01/28 11:22:03;;;;;;;1.03;1.03;;;;;;;4.11;88.71;99810.50;5034000;28;20477;-68
2021/01/28 11:24:29;;;;;;;0.50;0.50;;;;;;;4.05;89.46;99803.56;5034274;28;20447;-70
2021/01/28 11:26:55;;;;;;;1.20;0.97;;;;;;;4.20;89.96;99808.03;5034450;28;20447;-68
2021/01/28 11:29:24;;;;;;;0.60;0.40;;;;;;;4.20;89.93;99795.44;5033845;28;20454;-68
2021/01/28 11:31:50;;;;;;;0.40;0.30;;;;;;;4.04;89.21;99791.25;5033500;28;20463;-68
2021/01/28 11:34:17;;;;;;;0.40;0.30;;;;;;;3.87;89.62;99786.25;5033742;28;20484;-69
2021/01/28 11:36:43;;;;;;;0.97;0.90;;;;;;;3.97;88.33;99788.06;5034213;28;20470;-68
2021/01/28 11:39:09;;;;;;;0.40;0.30;;;;;;;3.99;88.14;99794.78;5035708;28;20508;-68
2021/01/28 11:41:35;;;;;;;0.40;0.30;;;;;;;4.19;88.73;99785.00;5034192;28;20479;-68
2021/01/28 11:44:01;;;;;;;0.40;0.30;;;;;;;4.29;88.19;99779.56;5033340;28;20442;-68
2021/01/28 11:46:27;;;;;;;0.60;0.60;;;;;;;4.37;88.81;99787.00;5033847;28;20564;-69